SBRJ/SDU METAR and TAF weather

Enter ICAO airport designator
Station Type Date Time Source
SBRJ METAR 2019/12/08 03:00 UTC NOAA

SBRJ 080300Z 00000KT CAVOK 21/19 Q1015


Station Type Date Time Source
SBRJ Decoded METAR 2019/12/08 03:00 UTC NOAA

Rio De Janeiro Aeroporto , Brazil (SBRJ) 22-54S 043-10W
Dec 07, 2019 - 10:00 PM EST / 2019.12.08 0300 UTC
Wind: Calm:0
Visibility: greater than 7 mile(s):0
Temperature: 69 F (21 C)
Dew Point: 66 F (19 C)
Relative Humidity: 88%
Pressure (altimeter): 29.97 in. Hg (1015 hPa)
ob: SBRJ 080300Z 00000KT CAVOK 21/19 Q1015
cycle: 3

Station Type Date Time Source
SBRJ TAF 2019/12/08 00:33 UTC NOAA

TAF SBRJ 072100Z 0800/0812 13005KT 9999 SCT015 BKN030 TN21/0808Z TX27/0812Z
BECMG 0802/0804 35005KT SCT020 BKN040
BECMG 0809/0811 05005KT FEW020
RMK PGY

Example: see airport list